createdAt,value
2018-09-24T00:00:13.184Z,20.40
2018-09-24T00:01:13.124Z,20.38
2018-09-24T00:02:12.845Z,20.41
2018-09-24T00:03:13.115Z,20.38
2018-09-24T00:04:13.203Z,20.37
2018-09-24T00:05:12.916Z,20.35
2018-09-24T00:06:15.327Z,20.41
2018-09-24T00:07:12.840Z,20.37
2018-09-24T00:08:13.182Z,20.40
2018-09-24T00:09:12.909Z,20.41
2018-09-24T00:10:12.762Z,20.42
2018-09-24T00:11:12.751Z,20.37
2018-09-24T00:12:12.734Z,20.38
2018-09-24T00:13:12.741Z,20.38
2018-09-24T00:14:12.742Z,20.42
2018-09-24T00:15:13.027Z,20.37
2018-09-24T00:16:12.699Z,20.33
2018-09-24T00:17:12.688Z,20.38
2018-09-24T00:18:12.812Z,20.37
2018-09-24T00:19:12.927Z,20.40
2018-09-24T00:20:12.647Z,20.34
2018-09-24T00:21:12.927Z,20.40
2018-09-24T00:22:11.748Z,20.40
2018-09-24T00:23:12.733Z,20.40
2018-09-24T00:24:12.608Z,20.35
2018-09-24T00:25:12.605Z,20.37
2018-09-24T00:26:12.849Z,20.27
2018-09-24T00:27:12.899Z,20.35
2018-09-24T00:28:12.605Z,20.31
2018-09-24T00:29:12.564Z,20.30
2018-09-24T00:30:12.553Z,20.25
2018-09-24T00:31:12.654Z,20.27
2018-09-24T00:32:12.532Z,20.42
2018-09-24T00:33:12.539Z,20.33
2018-09-24T00:34:12.505Z,20.35
2018-09-24T00:35:12.498Z,20.34
2018-09-24T00:36:12.494Z,20.33
2018-09-24T00:37:12.481Z,20.38
2018-09-24T00:38:12.493Z,20.31
2018-09-24T00:39:12.724Z,20.27
2018-09-24T00:40:12.826Z,20.31
2018-09-24T00:41:12.433Z,20.31
2018-09-24T00:42:12.414Z,20.40
2018-09-24T00:43:13.072Z,20.23
2018-09-24T00:44:12.786Z,20.31
2018-09-24T00:45:12.401Z,20.34
2018-09-24T00:46:12.470Z,20.34
2018-09-24T00:47:12.359Z,20.33
2018-09-24T00:48:12.474Z,20.38
2018-09-24T00:49:12.345Z,20.31
2018-09-24T00:50:12.340Z,20.30
2018-09-24T00:51:12.579Z,20.27
2018-09-24T00:52:12.310Z,20.30
2018-09-24T00:53:12.694Z,20.31
2018-09-24T00:54:12.310Z,20.30
2018-09-24T00:55:12.347Z,20.25
2018-09-24T00:56:12.542Z,20.26
2018-09-24T00:57:12.252Z,20.26
2018-09-24T00:58:12.255Z,20.26
2018-09-24T00:59:12.239Z,20.23
2018-09-24T01:00:12.225Z,20.34
2018-09-24T01:01:12.209Z,20.34
2018-09-24T01:02:12.468Z,20.23
2018-09-24T01:03:12.296Z,20.33
2018-09-24T01:04:12.312Z,20.27
2018-09-24T01:05:12.436Z,20.27
2018-09-24T01:06:12.167Z,20.31
2018-09-24T01:07:12.152Z,20.20
2018-09-24T01:08:12.141Z,20.27
2018-09-24T01:09:12.149Z,20.31
2018-09-24T01:10:12.213Z,20.17
2018-09-24T01:11:12.489Z,20.22
2018-09-24T01:12:12.095Z,20.22
2018-09-24T01:13:12.084Z,20.25
2018-09-24T01:14:12.088Z,20.23
2018-09-24T01:15:12.094Z,20.31
2018-09-24T01:16:12.059Z,20.26
2018-09-24T01:17:12.052Z,20.23
2018-09-24T01:18:12.043Z,20.34
2018-09-24T01:19:12.093Z,20.23
2018-09-24T01:20:12.021Z,20.17
2018-09-24T01:21:12.001Z,20.19
2018-09-24T01:22:11.985Z,20.20
2018-09-24T01:23:11.979Z,20.27
2018-09-24T01:24:11.995Z,20.25
2018-09-24T01:25:12.049Z,20.19
2018-09-24T01:26:11.942Z,20.23
2018-09-24T01:27:12.071Z,20.19
2018-09-24T01:28:12.050Z,20.25
2018-09-24T01:29:12.297Z,20.20
2018-09-24T01:30:11.928Z,20.22
2018-09-24T01:31:12.155Z,20.17
2018-09-24T01:32:12.002Z,20.20
2018-09-24T01:33:11.869Z,20.12
2018-09-24T01:34:11.872Z,20.15
2018-09-24T01:35:12.112Z,20.23
2018-09-24T01:36:12.123Z,20.17
2018-09-24T01:37:11.826Z,20.19
2018-09-24T01:38:11.816Z,20.19
2018-09-24T01:39:11.818Z,20.17
2018-09-24T01:40:11.810Z,20.13
2018-09-24T01:41:11.790Z,20.15
2018-09-24T01:42:11.936Z,20.15
2018-09-24T01:43:12.166Z,20.13
2018-09-24T01:44:12.028Z,20.19
2018-09-24T01:45:11.742Z,20.13
2018-09-24T01:46:11.729Z,20.17
2018-09-24T01:47:11.721Z,20.13
2018-09-24T01:48:11.970Z,20.15
2018-09-24T01:49:12.081Z,20.08
2018-09-24T01:50:11.693Z,20.15
2018-09-24T01:51:11.982Z,20.15
2018-09-24T01:52:11.783Z,20.16
2018-09-24T01:53:11.654Z,20.07
2018-09-24T01:54:11.656Z,20.08
2018-09-24T01:55:11.909Z,20.15
2018-09-24T01:56:12.007Z,20.13
2018-09-24T01:57:11.614Z,20.13
2018-09-24T01:58:11.600Z,20.13
2018-09-24T01:59:11.706Z,20.16
2018-09-24T02:00:11.582Z,20.15
2018-09-24T02:01:11.571Z,20.19
2018-09-24T02:02:11.572Z,20.16
2018-09-24T02:03:11.549Z,20.17
2018-09-24T02:04:11.818Z,20.16
2018-09-24T02:05:11.527Z,20.15
2018-09-24T02:06:11.516Z,20.10
2018-09-24T02:07:11.502Z,20.15
2018-09-24T02:08:11.506Z,20.07
2018-09-24T02:09:11.515Z,20.13
2018-09-24T02:10:11.480Z,20.16
2018-09-24T02:11:11.461Z,20.15
2018-09-24T02:12:11.718Z,20.16
2018-09-24T02:13:11.465Z,20.13
2018-09-24T02:14:11.449Z,20.13
2018-09-24T02:15:11.421Z,20.08
2018-09-24T02:16:11.527Z,20.10
2018-09-24T02:17:11.397Z,20.05
2018-09-24T02:18:11.384Z,20.12
2018-09-24T02:19:11.405Z,20.12
2018-09-24T02:20:11.893Z,20.05
2018-09-24T02:21:11.451Z,20.08
2018-09-24T02:22:11.347Z,20.13
2018-09-24T02:23:11.886Z,20.16
2018-09-24T02:24:11.324Z,20.12
2018-09-24T02:25:11.317Z,20.04
2018-09-24T02:26:11.351Z,20.04
2018-09-24T02:27:11.289Z,20.01
2018-09-24T02:28:11.276Z,20.05
2018-09-24T02:29:11.635Z,20.05
2018-09-24T02:30:11.260Z,20.12
2018-09-24T02:31:11.251Z,20.02
2018-09-24T02:32:11.235Z,20.04
2018-09-24T02:33:11.588Z,20.07
2018-09-24T02:34:11.314Z,20.10
2018-09-24T02:35:11.204Z,19.95
2018-09-24T02:36:11.271Z,20.08
2018-09-24T02:37:11.442Z,20.07
2018-09-24T02:38:11.175Z,20.02
2018-09-24T02:39:11.421Z,20.05
2018-09-24T02:40:11.416Z,20.08
2018-09-24T02:41:11.515Z,20.02
2018-09-24T02:42:11.127Z,20.07
2018-09-24T02:43:11.117Z,20.07
2018-09-24T02:44:11.387Z,20.10
2018-09-24T02:45:10.109Z,20.02
2018-09-24T02:46:11.097Z,20.04
2018-09-24T02:47:11.344Z,20.00
2018-09-24T02:48:11.073Z,20.02
2018-09-24T02:49:11.084Z,20.02
2018-09-24T02:50:11.156Z,20.05
2018-09-24T02:51:11.044Z,20.08
2018-09-24T02:52:11.019Z,20.05
2018-09-24T02:53:11.012Z,19.98
2018-09-24T02:54:11.011Z,20.01
2018-09-24T02:55:11.018Z,19.97
2018-09-24T02:56:10.995Z,20.12
2018-09-24T02:57:11.119Z,20.10
2018-09-24T02:58:10.959Z,20.05
2018-09-24T02:59:11.048Z,20.02
2018-09-24T03:00:10.938Z,19.98
2018-09-24T03:01:10.959Z,20.04
2018-09-24T03:02:11.199Z,20.04
2018-09-24T03:03:10.902Z,20.02
2018-09-24T03:04:11.177Z,20.08
2018-09-24T03:05:10.886Z,20.05
2018-09-24T03:06:10.875Z,20.00
2018-09-24T03:07:11.149Z,20.00
2018-09-24T03:08:10.861Z,20.01
2018-09-24T03:09:10.839Z,20.05
2018-09-24T03:10:10.845Z,19.95
2018-09-24T03:11:10.816Z,19.98
2018-09-24T03:12:10.823Z,20.07
2018-09-24T03:13:10.812Z,20.04
2018-09-24T03:14:10.792Z,20.05
2018-09-24T03:15:11.060Z,20.04
2018-09-24T03:16:10.766Z,20.07
2018-09-24T03:17:10.753Z,20.08
2018-09-24T03:18:13.679Z,19.97
2018-09-24T03:19:10.858Z,20.00
2018-09-24T03:20:10.941Z,19.98
2018-09-24T03:21:11.205Z,19.94
2018-09-24T03:22:10.699Z,19.97
2018-09-24T03:23:11.188Z,20.01
2018-09-24T03:24:10.693Z,20.00
2018-09-24T03:25:10.826Z,19.98
2018-09-24T03:26:10.684Z,20.01
2018-09-24T03:27:10.919Z,19.98
2018-09-24T03:28:10.637Z,19.95
2018-09-24T03:29:10.899Z,19.94
2018-09-24T03:30:11.009Z,19.98
2018-09-24T03:31:10.734Z,20.01
2018-09-24T03:32:10.600Z,19.98
2018-09-24T03:33:10.599Z,20.01
2018-09-24T03:34:10.573Z,19.98
2018-09-24T03:35:10.564Z,19.95
2018-09-24T03:36:10.621Z,19.94
2018-09-24T03:37:11.233Z,20.00
2018-09-24T03:38:10.534Z,20.02
2018-09-24T03:39:10.526Z,19.98
2018-09-24T03:40:10.509Z,19.98
2018-09-24T03:41:10.527Z,19.98
2018-09-24T03:42:10.491Z,20.05
2018-09-24T03:43:10.478Z,20.01
2018-09-24T03:44:10.464Z,19.94
2018-09-24T03:45:10.509Z,19.92
2018-09-24T03:46:10.728Z,19.94
2018-09-24T03:47:10.434Z,19.97
2018-09-24T03:48:10.422Z,20.00
2018-09-24T03:49:10.469Z,19.95
2018-09-24T03:50:10.405Z,19.94
2018-09-24T03:51:10.416Z,19.92
2018-09-24T03:52:10.779Z,19.87
2018-09-24T03:53:10.373Z,19.89
2018-09-24T03:54:10.453Z,19.98
2018-09-24T03:55:10.344Z,19.94
2018-09-24T03:56:10.693Z,19.86
2018-09-24T03:57:10.348Z,19.97
2018-09-24T03:58:10.441Z,19.86
2018-09-24T03:59:10.843Z,19.95
2018-09-24T04:00:10.303Z,19.97
2018-09-24T04:01:10.309Z,19.87
2018-09-24T04:02:10.272Z,19.95
2018-09-24T04:03:10.263Z,19.82
2018-09-24T04:04:10.316Z,19.92
2018-09-24T04:05:10.255Z,19.83
2018-09-24T04:06:10.240Z,19.86
2018-09-24T04:07:10.286Z,19.86
2018-09-24T04:08:10.230Z,19.79
2018-09-24T04:09:10.305Z,19.87
2018-09-24T04:10:10.247Z,19.89
2018-09-24T04:11:10.196Z,19.82
2018-09-24T04:12:10.430Z,19.87
2018-09-24T04:13:10.159Z,19.80
2018-09-24T04:14:10.151Z,19.87
2018-09-24T04:15:10.247Z,19.86
2018-09-24T04:16:10.141Z,19.85
2018-09-24T04:17:10.127Z,19.89
2018-09-24T04:18:10.369Z,19.85
2018-09-24T04:19:10.106Z,19.89
2018-09-24T04:20:10.464Z,19.83
2018-09-24T04:21:10.094Z,19.87
2018-09-24T04:22:10.062Z,19.89
2018-09-24T04:23:10.109Z,19.89
2018-09-24T04:24:10.040Z,19.87
2018-09-24T04:25:10.148Z,19.83
2018-09-24T04:26:10.403Z,19.83
2018-09-24T04:27:10.119Z,19.86
2018-09-24T04:28:10.071Z,19.82
2018-09-24T04:29:10.011Z,19.90
2018-09-24T04:30:09.985Z,19.89
2018-09-24T04:31:10.518Z,19.86
2018-09-24T04:32:09.956Z,19.79
2018-09-24T04:33:09.937Z,19.86
2018-09-24T04:34:10.032Z,19.87
2018-09-24T04:35:09.918Z,19.85
2018-09-24T04:36:09.906Z,19.89
2018-09-24T04:37:09.915Z,19.83
2018-09-24T04:38:09.903Z,19.85
2018-09-24T04:39:09.877Z,19.82
2018-09-24T04:40:10.255Z,19.86
2018-09-24T04:41:10.125Z,19.89
2018-09-24T04:42:09.931Z,19.86
2018-09-24T04:43:09.948Z,19.72
2018-09-24T04:44:09.840Z,19.78
2018-09-24T04:45:09.811Z,19.79
2018-09-24T04:46:09.811Z,19.89
2018-09-24T04:47:09.816Z,19.82
2018-09-24T04:48:09.808Z,19.80
2018-09-24T04:49:09.812Z,19.72
2018-09-24T04:50:09.773Z,19.87
2018-09-24T04:51:09.749Z,19.87
2018-09-24T04:52:09.785Z,19.78
2018-09-24T04:53:09.726Z,19.83
2018-09-24T04:54:09.986Z,19.87
2018-09-24T04:55:09.788Z,19.80
2018-09-24T04:56:09.689Z,19.75
2018-09-24T04:57:09.697Z,19.86
2018-09-24T04:58:09.687Z,19.80
2018-09-24T04:59:09.664Z,19.82
2018-09-24T05:00:09.652Z,19.85
2018-09-24T05:01:09.976Z,19.86
2018-09-24T05:02:09.768Z,19.86
2018-09-24T05:03:09.638Z,19.86
2018-09-24T05:04:09.645Z,19.90
2018-09-24T05:05:10.009Z,19.87
2018-09-24T05:06:09.583Z,19.86
2018-09-24T05:07:09.866Z,19.85
2018-09-24T05:08:09.696Z,19.95
2018-09-24T05:09:09.617Z,19.90
2018-09-24T05:10:09.587Z,19.97
2018-09-24T05:11:09.548Z,20.02
2018-09-24T05:12:09.539Z,19.90
2018-09-24T05:13:09.522Z,20.02
2018-09-24T05:14:09.527Z,19.94
2018-09-24T05:15:09.494Z,20.04
2018-09-24T05:16:09.601Z,20.01
2018-09-24T05:17:09.501Z,20.05
2018-09-24T05:18:09.461Z,19.98
2018-09-24T05:19:09.664Z,20.04
2018-09-24T05:20:09.778Z,20.08
2018-09-24T05:21:09.431Z,20.04
2018-09-24T05:22:09.529Z,20.00
2018-09-24T05:23:09.419Z,20.07
2018-09-24T05:24:09.766Z,20.08
2018-09-24T05:25:09.385Z,20.00
2018-09-24T05:26:09.761Z,20.08
2018-09-24T05:27:09.390Z,20.07
2018-09-24T05:28:08.358Z,20.13
2018-09-24T05:29:09.338Z,20.15
2018-09-24T05:30:09.327Z,20.08
2018-09-24T05:31:10.041Z,20.19
2018-09-24T05:32:09.325Z,20.15
2018-09-24T05:33:08.434Z,20.13
2018-09-24T05:34:09.332Z,20.17
2018-09-24T05:35:09.814Z,20.16
2018-09-24T05:36:09.295Z,20.13
2018-09-24T05:37:09.573Z,20.16
2018-09-24T05:38:09.249Z,20.13
2018-09-24T05:39:09.277Z,20.16
2018-09-24T05:40:09.234Z,20.20
2018-09-24T05:41:09.255Z,20.19
2018-09-24T05:42:09.500Z,20.22
2018-09-24T05:43:09.535Z,20.33
2018-09-24T05:44:09.316Z,20.33
2018-09-24T05:45:09.172Z,20.27
2018-09-24T05:46:09.445Z,20.31
2018-09-24T05:47:09.158Z,20.27
2018-09-24T05:48:09.160Z,20.38
2018-09-24T05:49:09.170Z,20.27
2018-09-24T05:50:09.120Z,20.37
2018-09-24T05:51:09.105Z,20.37
2018-09-24T05:52:09.128Z,20.41
2018-09-24T05:53:09.200Z,20.42
2018-09-24T05:54:09.175Z,20.40
2018-09-24T05:55:09.348Z,20.50
2018-09-24T05:56:09.432Z,20.46
2018-09-24T05:57:09.306Z,20.46
2018-09-24T05:58:09.034Z,20.58
2018-09-24T05:59:09.032Z,20.60
2018-09-24T06:00:09.027Z,20.56
2018-09-24T06:01:09.044Z,20.57
2018-09-24T06:02:08.994Z,20.68
2018-09-24T06:03:08.996Z,20.60
2018-09-24T06:04:09.108Z,20.60
2018-09-24T06:05:09.018Z,20.60
2018-09-24T06:06:08.950Z,20.66
2018-09-24T06:07:09.196Z,20.66
2018-09-24T06:08:10.608Z,20.69
2018-09-24T06:09:09.393Z,20.69
2018-09-24T06:10:08.944Z,20.69
2018-09-24T06:11:08.903Z,20.71
2018-09-24T06:12:08.997Z,20.72
2018-09-24T06:13:08.909Z,20.76
2018-09-24T06:14:09.037Z,20.81
2018-09-24T06:15:08.870Z,20.83
2018-09-24T06:16:08.852Z,20.85
2018-09-24T06:17:08.906Z,20.83
2018-09-24T06:18:08.862Z,20.83
2018-09-24T06:19:09.330Z,20.88
2018-09-24T06:20:09.174Z,20.97
2018-09-24T06:21:08.787Z,20.97
2018-09-24T06:22:09.168Z,20.90
2018-09-24T06:23:09.057Z,20.88
2018-09-24T06:24:09.094Z,20.93
2018-09-24T06:25:08.831Z,20.97
2018-09-24T06:26:08.917Z,20.91
2018-09-24T06:27:08.874Z,20.94
2018-09-24T06:28:08.736Z,21.01
2018-09-24T06:29:08.826Z,21.06
2018-09-24T06:30:08.755Z,21.03
2018-09-24T06:31:09.708Z,21.01
2018-09-24T06:32:08.683Z,21.09
2018-09-24T06:33:08.914Z,21.06
2018-09-24T06:34:08.757Z,21.12
2018-09-24T06:35:08.660Z,21.12
2018-09-24T06:36:07.753Z,21.06
2018-09-24T06:37:10.014Z,21.05
2018-09-24T06:38:10.492Z,21.18
2018-09-24T06:39:08.605Z,21.05
2018-09-24T06:40:08.778Z,21.16
2018-09-24T06:41:08.617Z,21.21
2018-09-24T06:42:08.687Z,21.24
2018-09-24T06:43:08.914Z,21.12
2018-09-24T06:44:08.849Z,21.21
2018-09-24T06:45:08.756Z,21.26
2018-09-24T06:46:08.519Z,21.16
2018-09-24T06:47:08.792Z,21.24
2018-09-24T06:48:09.248Z,21.26
2018-09-24T06:49:09.266Z,21.24
2018-09-24T06:50:09.019Z,21.22
2018-09-24T06:51:08.661Z,21.24
2018-09-24T06:52:08.453Z,21.27
2018-09-24T06:53:08.592Z,21.30
2018-09-24T06:54:08.718Z,21.27
2018-09-24T06:55:08.751Z,21.28
2018-09-24T06:56:08.430Z,21.36
2018-09-24T06:57:08.537Z,21.33
2018-09-24T06:58:08.535Z,21.30
2018-09-24T06:59:08.752Z,21.37
2018-09-24T07:00:08.739Z,21.33
2018-09-24T07:01:08.754Z,21.40
2018-09-24T07:02:08.742Z,21.40
2018-09-24T07:03:08.473Z,21.43
2018-09-24T07:04:08.343Z,21.42
2018-09-24T07:05:08.334Z,21.48
2018-09-24T07:06:08.509Z,21.43
2018-09-24T07:07:08.821Z,21.38
2018-09-24T07:08:08.509Z,21.38
2018-09-24T07:09:08.542Z,21.33
2018-09-24T07:10:08.396Z,21.46
2018-09-24T07:11:08.591Z,21.40
2018-09-24T07:12:08.386Z,21.49
2018-09-24T07:13:09.863Z,21.53
2018-09-24T07:14:08.293Z,21.49
2018-09-24T07:15:08.629Z,21.45
2018-09-24T07:16:08.285Z,21.53
2018-09-24T07:17:08.252Z,21.59
2018-09-24T07:18:08.569Z,21.51
2018-09-24T07:19:08.222Z,21.56
2018-09-24T07:20:08.317Z,21.46
2018-09-24T07:21:08.167Z,21.64
2018-09-24T07:22:09.315Z,21.66
2018-09-24T07:23:08.507Z,21.63
2018-09-24T07:24:08.292Z,21.63
2018-09-24T07:25:08.235Z,21.59
2018-09-24T07:26:08.381Z,21.73
2018-09-24T07:27:08.078Z,21.73
2018-09-24T07:28:08.213Z,21.66
2018-09-24T07:29:08.063Z,21.61
2018-09-24T07:30:08.057Z,21.58
2018-09-24T07:31:08.185Z,21.70
2018-09-24T07:32:08.192Z,21.77
2018-09-24T07:33:08.023Z,21.79
2018-09-24T07:34:08.227Z,21.75
2018-09-24T07:35:08.085Z,21.77
2018-09-24T07:36:09.377Z,21.79
2018-09-24T07:37:08.401Z,21.74
2018-09-24T07:38:08.085Z,21.83
2018-09-24T07:39:08.207Z,21.75
2018-09-24T07:40:07.956Z,21.77
2018-09-24T07:41:08.086Z,21.79
2018-09-24T07:42:08.201Z,21.82
2018-09-24T07:43:07.997Z,21.77
2018-09-24T07:44:07.930Z,21.81
2018-09-24T07:45:08.171Z,21.75
2018-09-24T07:46:07.920Z,21.90
2018-09-24T07:47:08.516Z,21.86
2018-09-24T07:48:08.182Z,21.83
2018-09-24T07:49:07.892Z,21.89
2018-09-24T07:50:08.007Z,21.82
2018-09-24T07:51:08.119Z,21.82
2018-09-24T07:52:07.819Z,21.93
2018-09-24T07:53:07.816Z,21.83
2018-09-24T07:54:07.797Z,21.90
2018-09-24T07:55:07.850Z,21.91
2018-09-24T07:56:08.113Z,21.91
2018-09-24T07:57:07.782Z,21.86
2018-09-24T07:58:07.768Z,21.93
2018-09-24T07:59:07.024Z,21.90
2018-09-24T08:00:07.785Z,21.89
2018-09-24T08:01:07.866Z,21.93
2018-09-24T08:02:07.709Z,21.90
2018-09-24T08:03:07.725Z,21.86
2018-09-24T08:04:08.111Z,21.85
2018-09-24T08:05:07.688Z,21.90
2018-09-24T08:06:07.794Z,21.91
2018-09-24T08:07:08.221Z,21.86
2018-09-24T08:08:07.773Z,21.99
2018-09-24T08:09:07.647Z,21.98
2018-09-24T08:10:07.635Z,21.91
2018-09-24T08:11:07.632Z,21.90
2018-09-24T08:12:07.601Z,21.94
2018-09-24T08:13:07.666Z,21.98
2018-09-24T08:14:07.605Z,21.93
2018-09-24T08:15:08.351Z,22.01
2018-09-24T08:16:07.708Z,22.02
2018-09-24T08:17:07.554Z,21.98
2018-09-24T08:18:07.598Z,21.98
2018-09-24T08:19:07.609Z,22.02
2018-09-24T08:20:07.525Z,22.04
2018-09-24T08:21:08.225Z,22.01
2018-09-24T08:22:07.517Z,22.06
2018-09-24T08:23:07.487Z,22.04
2018-09-24T08:24:07.494Z,21.94
2018-09-24T08:25:08.550Z,21.98
2018-09-24T08:26:07.648Z,22.08
2018-09-24T08:27:07.559Z,22.02
2018-09-24T08:28:07.440Z,22.01
2018-09-24T08:29:07.421Z,22.11
2018-09-24T08:30:08.536Z,22.08
2018-09-24T08:31:07.528Z,22.05
2018-09-24T08:32:07.542Z,22.12
2018-09-24T08:33:07.405Z,22.11
2018-09-24T08:34:07.630Z,22.04
2018-09-24T08:35:07.444Z,22.12
2018-09-24T08:36:07.494Z,22.17
2018-09-24T08:37:07.338Z,22.14
2018-09-24T08:38:07.351Z,22.09
2018-09-24T08:39:07.315Z,22.14
2018-09-24T08:40:07.464Z,22.09
2018-09-24T08:41:07.578Z,22.20
2018-09-24T08:42:07.528Z,22.20
2018-09-24T08:43:07.267Z,22.20
2018-09-24T08:44:07.363Z,22.29
2018-09-24T08:45:07.877Z,22.31
2018-09-24T08:46:07.255Z,22.30
2018-09-24T08:47:08.059Z,22.27
2018-09-24T08:48:07.558Z,22.33
2018-09-24T08:49:07.211Z,22.38
2018-09-24T08:50:07.811Z,22.35
2018-09-24T08:51:07.276Z,22.33
2018-09-24T08:52:08.190Z,22.33
2018-09-24T08:53:07.273Z,22.33
2018-09-24T08:54:07.348Z,22.36
2018-09-24T08:55:07.874Z,22.38
2018-09-24T08:56:07.530Z,22.31
2018-09-24T08:57:07.189Z,22.33
2018-09-24T08:58:07.458Z,22.44
2018-09-24T08:59:07.394Z,22.33
2018-09-24T09:00:07.149Z,22.31
2018-09-24T09:01:07.223Z,22.36
2018-09-24T09:02:07.417Z,22.42
2018-09-24T09:03:07.059Z,22.39
2018-09-24T09:04:07.175Z,22.35
2018-09-24T09:05:07.072Z,22.36
2018-09-24T09:06:07.133Z,22.36
2018-09-24T09:07:07.427Z,22.31
2018-09-24T09:08:07.262Z,22.39
2018-09-24T09:09:06.994Z,22.36
2018-09-24T09:10:07.016Z,22.39
2018-09-24T09:11:07.313Z,22.36
2018-09-24T09:12:07.195Z,22.39
2018-09-24T09:13:08.702Z,22.42
2018-09-24T09:14:06.951Z,22.42
2018-09-24T09:15:07.920Z,22.41
2018-09-24T09:16:07.032Z,22.48
2018-09-24T09:17:07.282Z,22.45
2018-09-24T09:18:07.173Z,22.42
2018-09-24T09:19:07.165Z,22.44
2018-09-24T09:20:07.987Z,22.41
2018-09-24T09:21:06.865Z,22.45
2018-09-24T09:22:07.192Z,22.45
2018-09-24T09:23:06.851Z,22.45
2018-09-24T09:24:06.924Z,22.48
2018-09-24T09:25:06.815Z,22.44
2018-09-24T09:26:08.455Z,22.45
2018-09-24T09:27:06.985Z,22.41
2018-09-24T09:28:05.784Z,22.44
2018-09-24T09:29:06.789Z,22.44
2018-09-24T09:30:06.795Z,22.39
2018-09-24T09:31:06.757Z,22.42
2018-09-24T09:32:06.791Z,22.45
2018-09-24T09:33:06.770Z,22.44
2018-09-24T09:34:05.985Z,22.46
2018-09-24T09:35:06.782Z,22.48
2018-09-24T09:36:06.780Z,22.48
2018-09-24T09:37:07.032Z,22.46
2018-09-24T09:38:06.687Z,22.44
2018-09-24T09:39:06.693Z,22.38
2018-09-24T09:40:11.708Z,22.45
2018-09-24T09:41:06.996Z,22.45
2018-09-24T09:42:06.890Z,22.36
2018-09-24T09:43:06.691Z,22.45
2018-09-24T09:44:07.018Z,22.46
2018-09-24T09:45:06.608Z,22.44
2018-09-24T09:46:06.623Z,22.48
2018-09-24T09:47:07.236Z,22.52
2018-09-24T09:48:06.593Z,22.57
2018-09-24T09:49:09.077Z,22.52
2018-09-24T09:50:06.558Z,22.52
2018-09-24T09:51:08.033Z,22.59
2018-09-24T09:52:07.394Z,22.57
2018-09-24T09:53:06.546Z,22.51
2018-09-24T09:54:06.515Z,22.57
2018-09-24T09:55:06.507Z,22.56
2018-09-24T09:56:06.510Z,22.56
2018-09-24T09:57:06.784Z,22.51
2018-09-24T09:58:06.859Z,22.54
2018-09-24T09:59:06.502Z,22.57
2018-09-24T10:00:06.445Z,22.59
2018-09-24T10:01:05.485Z,22.61
2018-09-24T10:02:06.947Z,22.61
2018-09-24T10:03:06.487Z,22.60
2018-09-24T10:04:05.407Z,22.64
2018-09-24T10:05:06.397Z,22.70
2018-09-24T10:06:06.400Z,22.67
2018-09-24T10:07:06.375Z,22.70
2018-09-24T10:08:06.369Z,22.67
2018-09-24T10:09:06.347Z,22.74
2018-09-24T10:10:06.621Z,22.59
2018-09-24T10:11:06.332Z,22.70
2018-09-24T10:12:06.321Z,22.70
2018-09-24T10:13:06.342Z,22.70
2018-09-24T10:14:06.303Z,22.69
2018-09-24T10:15:06.286Z,22.70
2018-09-24T10:16:06.285Z,22.72
2018-09-24T10:17:06.279Z,22.78
2018-09-24T10:18:06.270Z,22.78
2018-09-24T10:19:06.278Z,22.72
2018-09-24T10:20:06.277Z,22.85
2018-09-24T10:21:06.238Z,22.84
2018-09-24T10:22:06.234Z,22.81
2018-09-24T10:23:06.276Z,22.85
2018-09-24T10:24:06.209Z,22.84
2018-09-24T10:25:06.584Z,22.82
2018-09-24T10:26:06.167Z,22.82
2018-09-24T10:27:06.200Z,22.82
2018-09-24T10:28:06.149Z,22.78
2018-09-24T10:29:06.286Z,22.82
2018-09-24T10:30:06.232Z,22.82
2018-09-24T10:31:06.612Z,22.75
2018-09-24T10:32:06.100Z,22.76
2018-09-24T10:33:06.104Z,22.82
2018-09-24T10:34:06.221Z,22.79
2018-09-24T10:35:06.090Z,22.79
2018-09-24T10:36:06.228Z,22.88
2018-09-24T10:37:06.051Z,22.86
2018-09-24T10:38:06.111Z,22.82
2018-09-24T10:39:06.535Z,22.81
2018-09-24T10:40:06.175Z,22.85
2018-09-24T10:41:06.021Z,22.85
2018-09-24T10:42:06.004Z,22.84
2018-09-24T10:43:06.007Z,22.82
2018-09-24T10:44:06.180Z,22.89
2018-09-24T10:45:06.073Z,22.85
2018-09-24T10:46:06.211Z,22.84
2018-09-24T10:47:06.699Z,22.79
2018-09-24T10:48:06.066Z,22.82
2018-09-24T10:49:06.114Z,22.79
2018-09-24T10:50:06.080Z,22.93
2018-09-24T10:51:06.072Z,22.96
2018-09-24T10:52:05.895Z,22.94
2018-09-24T10:53:06.103Z,22.91
2018-09-24T10:54:06.000Z,22.85
2018-09-24T10:55:05.854Z,22.94
2018-09-24T10:56:05.884Z,22.89
2018-09-24T10:57:05.973Z,22.89
2018-09-24T10:58:05.844Z,22.91
2018-09-24T10:59:05.812Z,22.91
2018-09-24T11:00:05.927Z,22.85
2018-09-24T11:02:29.829Z,22.94
2018-09-24T11:03:06.196Z,22.96
2018-09-24T11:04:06.755Z,22.94
2018-09-24T11:05:06.284Z,22.94
2018-09-24T11:06:05.763Z,22.93
2018-09-24T11:07:05.728Z,22.93
2018-09-24T11:08:05.862Z,22.89
2018-09-24T11:09:05.827Z,22.86
2018-09-24T11:10:05.823Z,22.86
2018-09-24T11:11:06.079Z,22.86
2018-09-24T11:12:06.199Z,22.91
2018-09-24T11:13:05.693Z,22.88
2018-09-24T11:14:08.332Z,22.86
2018-09-24T11:15:05.649Z,22.91
2018-09-24T11:16:05.689Z,22.94
2018-09-24T11:17:06.064Z,22.96
2018-09-24T11:18:05.799Z,23.01
2018-09-24T11:19:05.822Z,22.89
2018-09-24T11:20:06.618Z,22.97
2018-09-24T11:21:05.622Z,22.99
2018-09-24T11:22:05.664Z,22.99
2018-09-24T11:23:05.619Z,22.94
2018-09-24T11:24:05.935Z,22.85
2018-09-24T11:25:05.550Z,23.00
2018-09-24T11:26:05.537Z,22.88
2018-09-24T11:27:05.550Z,22.97
2018-09-24T11:28:05.641Z,22.93
2018-09-24T11:29:05.711Z,22.94
2018-09-24T11:30:05.516Z,22.96
2018-09-24T11:31:05.494Z,22.93
2018-09-24T11:32:05.807Z,22.91
2018-09-24T11:33:08.266Z,22.99
2018-09-24T11:34:05.462Z,22.96
2018-09-24T11:35:05.431Z,23.00
2018-09-24T11:36:06.944Z,23.12
2018-09-24T11:37:04.650Z,22.99
2018-09-24T11:38:05.541Z,23.06
2018-09-24T11:39:06.684Z,23.06
2018-09-24T11:40:05.375Z,23.12
2018-09-24T11:41:06.297Z,23.11
2018-09-24T11:42:07.093Z,23.11
2018-09-24T11:43:05.361Z,23.11
2018-09-24T11:44:05.361Z,23.12
2018-09-24T11:45:05.606Z,23.15
2018-09-24T11:46:05.314Z,23.14
2018-09-24T11:47:05.412Z,23.11
2018-09-24T11:48:05.571Z,23.16
2018-09-24T11:49:05.748Z,23.25
2018-09-24T11:50:05.275Z,23.19
2018-09-24T11:51:05.518Z,23.23
2018-09-24T11:52:05.395Z,23.23
2018-09-24T11:53:06.057Z,23.31
2018-09-24T11:54:05.242Z,23.37
2018-09-24T11:55:05.745Z,23.35
2018-09-24T11:56:05.468Z,23.34
2018-09-24T11:57:05.344Z,23.32
2018-09-24T11:58:04.286Z,23.31
2018-09-24T11:59:05.254Z,23.34
2018-09-24T12:00:05.244Z,23.37
2018-09-24T12:01:05.159Z,23.42
2018-09-24T12:02:06.103Z,23.34
2018-09-24T12:03:05.226Z,23.44
2018-09-24T12:04:05.122Z,23.44
2018-09-24T12:05:04.144Z,23.41
2018-09-24T12:06:05.248Z,23.50
2018-09-24T12:07:05.241Z,23.44
2018-09-24T12:08:05.364Z,23.49
2018-09-24T12:09:05.181Z,23.54
2018-09-24T12:10:05.115Z,23.53
2018-09-24T12:11:05.045Z,23.59
2018-09-24T12:12:05.119Z,23.59
2018-09-24T12:13:05.463Z,23.63
2018-09-24T12:14:05.109Z,23.63
2018-09-24T12:15:05.121Z,23.56
2018-09-24T12:16:04.002Z,23.69
2018-09-24T12:17:05.248Z,23.64
2018-09-24T12:18:05.365Z,23.78
2018-09-24T12:19:05.378Z,23.72
2018-09-24T12:20:05.093Z,23.63
2018-09-24T12:21:05.044Z,23.71
2018-09-24T12:22:05.324Z,23.62
2018-09-24T12:23:04.924Z,23.63
2018-09-24T12:24:05.100Z,23.69
2018-09-24T12:25:04.913Z,23.69
2018-09-24T12:26:05.277Z,23.62
2018-09-24T12:27:05.298Z,23.63
2018-09-24T12:28:04.884Z,23.67
2018-09-24T12:29:04.870Z,23.63
2018-09-24T12:30:04.856Z,23.60
2018-09-24T12:31:04.865Z,23.57
2018-09-24T12:32:04.824Z,23.59
2018-09-24T12:33:04.819Z,23.57
2018-09-24T12:34:04.801Z,23.62
2018-09-24T12:35:04.999Z,23.53
2018-09-24T12:36:04.783Z,23.52
2018-09-24T12:37:04.768Z,23.53
2018-09-24T12:38:05.790Z,23.56
2018-09-24T12:39:04.742Z,23.54
2018-09-24T12:40:04.758Z,23.57
2018-09-24T12:41:05.011Z,23.47
2018-09-24T12:42:04.849Z,23.47
2018-09-24T12:43:04.719Z,23.37
2018-09-24T12:44:05.073Z,23.50
2018-09-24T12:45:04.708Z,23.52
2018-09-24T12:46:04.671Z,23.49
2018-09-24T12:47:04.928Z,23.50
2018-09-24T12:48:04.716Z,23.37
2018-09-24T12:49:05.832Z,23.37
2018-09-24T12:50:04.717Z,23.50
2018-09-24T12:51:04.645Z,23.42
2018-09-24T12:52:05.427Z,23.35
2018-09-24T12:53:04.595Z,23.38